sensor_id;sensor_type;location;lat;lon;timestamp;temperature;humidity
2855;DHT22;1435;49.472;10.940;2022-10-16T00:00:11;16.40;99.90
2855;DHT22;1435;49.472;10.940;2022-10-16T00:05:14;16.50;99.90
2855;DHT22;1435;49.472;10.940;2022-10-16T00:10:16;16.40;99.90
2855;DHT22;1435;49.472;10.940;2022-10-16T00:15:18;16.50;99.90
2855;DHT22;1435;49.472;10.940;2022-10-16T00:20:21;16.50;99.90
2855;DHT22;1435;49.472;10.940;2022-10-16T00:25:22;16.50;99.90
2855;DHT22;1435;49.472;10.940;2022-10-16T00:30:24;16.50;99.90
2855;DHT22;1435;49.472;10.940;2022-10-16T00:35:30;16.50;99.90
2855;DHT22;1435;49.472;10.940;2022-10-16T00:40:32;16.50;99.90
2855;DHT22;1435;49.472;10.940;2022-10-16T00:45:33;16.50;99.90
2855;DHT22;1435;49.472;10.940;2022-10-16T00:50:36;16.50;99.90
2855;DHT22;1435;49.472;10.940;2022-10-16T00:55:39;16.50;99.90
2855;DHT22;1435;49.472;10.940;2022-10-16T01:00:41;16.50;99.90
2855;DHT22;1435;49.472;10.940;2022-10-16T01:05:49;16.50;99.90
2855;DHT22;1435;49.472;10.940;2022-10-16T01:10:57;16.50;99.90
2855;DHT22;1435;49.472;10.940;2022-10-16T01:16:03;16.50;99.90
2855;DHT22;1435;49.472;10.940;2022-10-16T01:21:10;16.50;99.90
2855;DHT22;1435;49.472;10.940;2022-10-16T01:26:24;16.40;99.90
2855;DHT22;1435;49.472;10.940;2022-10-16T01:31:36;16.40;99.90
2855;DHT22;1435;49.472;10.940;2022-10-16T01:36:41;16.40;99.90
2855;DHT22;1435;49.472;10.940;2022-10-16T01:41:45;16.40;99.90
2855;DHT22;1435;49.472;10.940;2022-10-16T01:46:51;16.40;99.90
2855;DHT22;1435;49.472;10.940;2022-10-16T01:51:56;16.40;99.90
2855;DHT22;1435;49.472;10.940;2022-10-16T01:57:01;16.40;99.90
2855;DHT22;1435;49.472;10.940;2022-10-16T02:02:09;16.40;99.90
2855;DHT22;1435;49.472;10.940;2022-10-16T02:07:12;16.30;99.90
2855;DHT22;1435;49.472;10.940;2022-10-16T02:12:18;16.30;99.90
2855;DHT22;1435;49.472;10.940;2022-10-16T02:17:23;16.30;99.90
2855;DHT22;1435;49.472;10.940;2022-10-16T02:22:27;16.30;99.90
2855;DHT22;1435;49.472;10.940;2022-10-16T02:27:34;16.30;99.90
2855;DHT22;1435;49.472;10.940;2022-10-16T02:32:39;16.40;99.90
2855;DHT22;1435;49.472;10.940;2022-10-16T02:37:42;16.30;99.90
2855;DHT22;1435;49.472;10.940;2022-10-16T02:42:44;16.30;99.90
2855;DHT22;1435;49.472;10.940;2022-10-16T02:47:48;16.40;99.90
2855;DHT22;1435;49.472;10.940;2022-10-16T02:52:49;16.40;99.90
2855;DHT22;1435;49.472;10.940;2022-10-16T02:57:51;16.30;99.90
2855;DHT22;1435;49.472;10.940;2022-10-16T03:02:54;16.40;99.90
2855;DHT22;1435;49.472;10.940;2022-10-16T03:07:56;16.40;99.90
2855;DHT22;1435;49.472;10.940;2022-10-16T03:13:00;16.40;99.90
2855;DHT22;1435;49.472;10.940;2022-10-16T03:18:03;16.40;99.90
2855;DHT22;1435;49.472;10.940;2022-10-16T03:23:05;16.40;99.90
2855;DHT22;1435;49.472;10.940;2022-10-16T03:28:08;16.40;99.90
2855;DHT22;1435;49.472;10.940;2022-10-16T03:33:11;16.40;99.90
2855;DHT22;1435;49.472;10.940;2022-10-16T03:38:13;16.30;99.90
2855;DHT22;1435;49.472;10.940;2022-10-16T03:43:15;16.30;99.90
2855;DHT22;1435;49.472;10.940;2022-10-16T03:48:18;16.30;99.90
2855;DHT22;1435;49.472;10.940;2022-10-16T03:53:20;16.30;99.90
2855;DHT22;1435;49.472;10.940;2022-10-16T03:58:22;16.30;99.90
2855;DHT22;1435;49.472;10.940;2022-10-16T04:03:25;16.30;99.90
2855;DHT22;1435;49.472;10.940;2022-10-16T04:08:26;16.20;99.90
2855;DHT22;1435;49.472;10.940;2022-10-16T04:13:28;16.20;99.90
2855;DHT22;1435;49.472;10.940;2022-10-16T04:18:31;16.30;99.90
2855;DHT22;1435;49.472;10.940;2022-10-16T04:23:33;16.30;99.90
2855;DHT22;1435;49.472;10.940;2022-10-16T04:28:35;16.30;99.90
2855;DHT22;1435;49.472;10.940;2022-10-16T04:33:38;16.20;99.90
2855;DHT22;1435;49.472;10.940;2022-10-16T04:38:40;16.30;99.90
2855;DHT22;1435;49.472;10.940;2022-10-16T04:43:41;16.20;99.90
2855;DHT22;1435;49.472;10.940;2022-10-16T04:48:45;16.30;99.90
2855;DHT22;1435;49.472;10.940;2022-10-16T04:53:47;16.20;99.90
2855;DHT22;1435;49.472;10.940;2022-10-16T04:58:48;16.20;99.90
2855;DHT22;1435;49.472;10.940;2022-10-16T05:03:52;16.20;99.90
2855;DHT22;1435;49.472;10.940;2022-10-16T05:08:54;16.20;99.90
2855;DHT22;1435;49.472;10.940;2022-10-16T05:13:55;16.20;99.90
2855;DHT22;1435;49.472;10.940;2022-10-16T05:18:58;16.20;99.90
2855;DHT22;1435;49.472;10.940;2022-10-16T05:24:00;16.20;99.90
2855;DHT22;1435;49.472;10.940;2022-10-16T05:29:02;16.10;99.90
2855;DHT22;1435;49.472;10.940;2022-10-16T05:34:05;16.10;99.90
2855;DHT22;1435;49.472;10.940;2022-10-16T05:39:07;16.10;99.90
2855;DHT22;1435;49.472;10.940;2022-10-16T05:44:09;16.10;99.90
2855;DHT22;1435;49.472;10.940;2022-10-16T05:49:12;16.10;99.90
2855;DHT22;1435;49.472;10.940;2022-10-16T05:54:14;16.10;99.90
2855;DHT22;1435;49.472;10.940;2022-10-16T05:59:15;16.10;99.90
2855;DHT22;1435;49.472;10.940;2022-10-16T06:04:18;16.10;99.90
2855;DHT22;1435;49.472;10.940;2022-10-16T06:09:20;16.10;99.90
2855;DHT22;1435;49.472;10.940;2022-10-16T06:14:22;16.10;99.90
2855;DHT22;1435;49.472;10.940;2022-10-16T06:19:25;16.00;99.90
2855;DHT22;1435;49.472;10.940;2022-10-16T06:24:27;16.00;99.90
2855;DHT22;1435;49.472;10.940;2022-10-16T06:29:28;16.10;99.90
2855;DHT22;1435;49.472;10.940;2022-10-16T06:34:32;16.10;99.90
2855;DHT22;1435;49.472;10.940;2022-10-16T06:39:33;16.00;99.90
2855;DHT22;1435;49.472;10.940;2022-10-16T06:44:35;16.00;99.90
2855;DHT22;1435;49.472;10.940;2022-10-16T06:49:38;16.10;99.90
2855;DHT22;1435;49.472;10.940;2022-10-16T06:54:40;16.10;99.90
2855;DHT22;1435;49.472;10.940;2022-10-16T06:59:41;16.20;99.90
2855;DHT22;1435;49.472;10.940;2022-10-16T07:04:44;16.20;99.90
2855;DHT22;1435;49.472;10.940;2022-10-16T07:09:46;16.20;99.90
2855;DHT22;1435;49.472;10.940;2022-10-16T07:14:49;16.20;99.90
2855;DHT22;1435;49.472;10.940;2022-10-16T07:19:53;16.30;99.90
2855;DHT22;1435;49.472;10.940;2022-10-16T07:24:55;16.30;99.90
2855;DHT22;1435;49.472;10.940;2022-10-16T07:29:57;16.30;99.90
2855;DHT22;1435;49.472;10.940;2022-10-16T07:35:00;16.30;99.90
2855;DHT22;1435;49.472;10.940;2022-10-16T07:40:03;16.30;99.90
2855;DHT22;1435;49.472;10.940;2022-10-16T07:45:05;16.30;99.90
2855;DHT22;1435;49.472;10.940;2022-10-16T07:50:09;16.30;99.90
2855;DHT22;1435;49.472;10.940;2022-10-16T07:55:11;16.30;99.90
2855;DHT22;1435;49.472;10.940;2022-10-16T08:00:13;16.30;99.90
2855;DHT22;1435;49.472;10.940;2022-10-16T08:05:16;16.40;99.90
2855;DHT22;1435;49.472;10.940;2022-10-16T08:10:19;16.40;99.90
2855;DHT22;1435;49.472;10.940;2022-10-16T08:15:21;16.40;99.90
2855;DHT22;1435;49.472;10.940;2022-10-16T08:20:25;16.50;99.90
2855;DHT22;1435;49.472;10.940;2022-10-16T08:25:27;16.50;99.90
2855;DHT22;1435;49.472;10.940;2022-10-16T08:30:28;16.50;99.90
2855;DHT22;1435;49.472;10.940;2022-10-16T08:35:32;16.60;99.90
2855;DHT22;1435;49.472;10.940;2022-10-16T08:40:36;16.60;99.90
2855;DHT22;1435;49.472;10.940;2022-10-16T08:45:44;16.60;99.90
2855;DHT22;1435;49.472;10.940;2022-10-16T08:50:53;16.60;99.90
2855;DHT22;1435;49.472;10.940;2022-10-16T08:55:55;16.70;99.90
2855;DHT22;1435;49.472;10.940;2022-10-16T09:01:00;16.70;99.90
2855;DHT22;1435;49.472;10.940;2022-10-16T09:06:16;16.70;99.90
2855;DHT22;1435;49.472;10.940;2022-10-16T09:11:26;16.80;99.90
2855;DHT22;1435;49.472;10.940;2022-10-16T09:16:35;16.80;99.90
2855;DHT22;1435;49.472;10.940;2022-10-16T09:21:41;16.80;99.90
2855;DHT22;1435;49.472;10.940;2022-10-16T09:26:44;16.90;99.90
2855;DHT22;1435;49.472;10.940;2022-10-16T09:31:47;17.00;99.90
2855;DHT22;1435;49.472;10.940;2022-10-16T09:36:51;17.00;99.90
2855;DHT22;1435;49.472;10.940;2022-10-16T09:41:53;17.10;99.90
2855;DHT22;1435;49.472;10.940;2022-10-16T09:47:02;17.10;99.90
2855;DHT22;1435;49.472;10.940;2022-10-16T09:52:11;17.20;99.90
2855;DHT22;1435;49.472;10.940;2022-10-16T09:57:13;17.20;99.90
2855;DHT22;1435;49.472;10.940;2022-10-16T10:02:16;17.30;99.90
2855;DHT22;1435;49.472;10.940;2022-10-16T10:07:24;17.30;99.90
2855;DHT22;1435;49.472;10.940;2022-10-16T10:12:27;17.30;99.90
2855;DHT22;1435;49.472;10.940;2022-10-16T10:17:30;17.30;99.90
2855;DHT22;1435;49.472;10.940;2022-10-16T10:22:41;17.30;99.90
2855;DHT22;1435;49.472;10.940;2022-10-16T10:27:58;17.40;99.90
2855;DHT22;1435;49.472;10.940;2022-10-16T10:33:19;17.40;99.90
2855;DHT22;1435;49.472;10.940;2022-10-16T10:38:34;17.50;99.90
2855;DHT22;1435;49.472;10.940;2022-10-16T10:43:48;17.60;99.90
2855;DHT22;1435;49.472;10.940;2022-10-16T10:49:11;17.60;99.90
2855;DHT22;1435;49.472;10.940;2022-10-16T10:54:20;17.70;99.90
2855;DHT22;1435;49.472;10.940;2022-10-16T10:59:52;17.70;99.90
2855;DHT22;1435;49.472;10.940;2022-10-16T11:05:13;17.80;99.90
2855;DHT22;1435;49.472;10.940;2022-10-16T11:10:23;17.90;99.90
2855;DHT22;1435;49.472;10.940;2022-10-16T11:15:30;18.00;99.90
2855;DHT22;1435;49.472;10.940;2022-10-16T11:20:35;18.00;99.90
2855;DHT22;1435;49.472;10.940;2022-10-16T11:25:42;18.10;99.90
2855;DHT22;1435;49.472;10.940;2022-10-16T11:30:47;18.20;99.90
2855;DHT22;1435;49.472;10.940;2022-10-16T11:35:54;18.30;99.90
2855;DHT22;1435;49.472;10.940;2022-10-16T11:41:02;18.30;99.90
2855;DHT22;1435;49.472;10.940;2022-10-16T11:46:10;18.40;99.90
2855;DHT22;1435;49.472;10.940;2022-10-16T11:51:17;18.50;99.90
2855;DHT22;1435;49.472;10.940;2022-10-16T11:56:22;18.60;99.90
2855;DHT22;1435;49.472;10.940;2022-10-16T12:01:29;18.70;99.90
2855;DHT22;1435;49.472;10.940;2022-10-16T12:06:36;18.70;99.90
2855;DHT22;1435;49.472;10.940;2022-10-16T12:11:40;18.80;99.90
2855;DHT22;1435;49.472;10.940;2022-10-16T12:16:50;18.90;99.90
2855;DHT22;1435;49.472;10.940;2022-10-16T12:21:56;19.00;99.90
2855;DHT22;1435;49.472;10.940;2022-10-16T12:26:59;19.10;99.90
2855;DHT22;1435;49.472;10.940;2022-10-16T12:32:03;19.20;99.90
2855;DHT22;1435;49.472;10.940;2022-10-16T12:37:11;19.40;99.90
2855;DHT22;1435;49.472;10.940;2022-10-16T12:42:30;19.50;99.90
2855;DHT22;1435;49.472;10.940;2022-10-16T12:47:38;19.50;99.90
2855;DHT22;1435;49.472;10.940;2022-10-16T12:52:40;19.50;99.90
2855;DHT22;1435;49.472;10.940;2022-10-16T12:58:00;19.60;99.90
2855;DHT22;1435;49.472;10.940;2022-10-16T13:03:31;19.60;99.90
2855;DHT22;1435;49.472;10.940;2022-10-16T13:08:46;19.70;99.90
2855;DHT22;1435;49.472;10.940;2022-10-16T13:14:09;19.70;99.90
2855;DHT22;1435;49.472;10.940;2022-10-16T13:19:24;19.70;99.90
2855;DHT22;1435;49.472;10.940;2022-10-16T13:24:42;20.00;99.90
2855;DHT22;1435;49.472;10.940;2022-10-16T13:29:53;20.20;99.90
2855;DHT22;1435;49.472;10.940;2022-10-16T13:35:01;20.30;99.90
2855;DHT22;1435;49.472;10.940;2022-10-16T13:40:18;20.40;99.90
2855;DHT22;1435;49.472;10.940;2022-10-16T13:45:23;20.50;99.90
2855;DHT22;1435;49.472;10.940;2022-10-16T13:50:25;20.60;99.90
2855;DHT22;1435;49.472;10.940;2022-10-16T13:55:27;20.70;99.90
2855;DHT22;1435;49.472;10.940;2022-10-16T14:00:30;20.90;99.90
2855;DHT22;1435;49.472;10.940;2022-10-16T14:05:33;20.90;99.90
2855;DHT22;1435;49.472;10.940;2022-10-16T14:10:34;21.10;99.90
2855;DHT22;1435;49.472;10.940;2022-10-16T14:15:38;21.20;99.90
2855;DHT22;1435;49.472;10.940;2022-10-16T14:20:39;21.30;99.90
2855;DHT22;1435;49.472;10.940;2022-10-16T14:25:41;21.40;99.90
2855;DHT22;1435;49.472;10.940;2022-10-16T14:30:52;21.50;99.90
2855;DHT22;1435;49.472;10.940;2022-10-16T14:36:03;21.60;99.90
2855;DHT22;1435;49.472;10.940;2022-10-16T14:41:06;21.70;99.90
2855;DHT22;1435;49.472;10.940;2022-10-16T14:46:12;21.70;99.90
2855;DHT22;1435;49.472;10.940;2022-10-16T14:51:15;21.70;99.90
2855;DHT22;1435;49.472;10.940;2022-10-16T14:56:19;21.40;99.90
2855;DHT22;1435;49.472;10.940;2022-10-16T15:01:25;21.30;99.90
2855;DHT22;1435;49.472;10.940;2022-10-16T15:06:27;21.30;99.90
2855;DHT22;1435;49.472;10.940;2022-10-16T15:11:29;21.00;99.90
2855;DHT22;1435;49.472;10.940;2022-10-16T15:16:33;21.00;99.90
2855;DHT22;1435;49.472;10.940;2022-10-16T15:21:35;21.00;99.90
2855;DHT22;1435;49.472;10.940;2022-10-16T15:26:37;20.60;99.90
2855;DHT22;1435;49.472;10.940;2022-10-16T15:31:40;20.50;99.90
2855;DHT22;1435;49.472;10.940;2022-10-16T15:36:43;20.50;99.90
2855;DHT22;1435;49.472;10.940;2022-10-16T15:41:47;20.50;99.90
2855;DHT22;1435;49.472;10.940;2022-10-16T15:46:54;20.40;99.90
2855;DHT22;1435;49.472;10.940;2022-10-16T15:51:56;20.30;99.90
2855;DHT22;1435;49.472;10.940;2022-10-16T15:56:58;20.20;99.90
2855;DHT22;1435;49.472;10.940;2022-10-16T16:02:01;20.10;99.90
2855;DHT22;1435;49.472;10.940;2022-10-16T16:07:02;20.10;99.90
2855;DHT22;1435;49.472;10.940;2022-10-16T16:12:07;20.10;99.90
2855;DHT22;1435;49.472;10.940;2022-10-16T16:17:10;20.10;99.90
2855;DHT22;1435;49.472;10.940;2022-10-16T16:22:12;20.10;99.90
2855;DHT22;1435;49.472;10.940;2022-10-16T16:27:14;19.80;99.90
2855;DHT22;1435;49.472;10.940;2022-10-16T16:32:17;19.90;99.90
2855;DHT22;1435;49.472;10.940;2022-10-16T16:37:18;19.80;99.90
2855;DHT22;1435;49.472;10.940;2022-10-16T16:42:20;19.80;99.90
2855;DHT22;1435;49.472;10.940;2022-10-16T16:47:23;19.70;99.90
2855;DHT22;1435;49.472;10.940;2022-10-16T16:52:25;19.60;99.90
2855;DHT22;1435;49.472;10.940;2022-10-16T16:57:30;19.50;99.90
2855;DHT22;1435;49.472;10.940;2022-10-16T17:02:33;19.40;99.90
2855;DHT22;1435;49.472;10.940;2022-10-16T17:07:35;19.40;99.90
2855;DHT22;1435;49.472;10.940;2022-10-16T17:12:36;19.30;99.90
2855;DHT22;1435;49.472;10.940;2022-10-16T17:17:40;19.40;99.90
2855;DHT22;1435;49.472;10.940;2022-10-16T17:22:42;19.30;99.90
2855;DHT22;1435;49.472;10.940;2022-10-16T17:27:44;19.30;99.90
2855;DHT22;1435;49.472;10.940;2022-10-16T17:32:47;19.30;99.90
2855;DHT22;1435;49.472;10.940;2022-10-16T17:37:51;19.20;99.90
2855;DHT22;1435;49.472;10.940;2022-10-16T17:42:53;19.10;99.90
2855;DHT22;1435;49.472;10.940;2022-10-16T17:47:58;19.10;99.90
2855;DHT22;1435;49.472;10.940;2022-10-16T17:53:00;19.00;99.90
2855;DHT22;1435;49.472;10.940;2022-10-16T17:58:02;19.00;99.90
2855;DHT22;1435;49.472;10.940;2022-10-16T18:03:05;18.90;99.90
2855;DHT22;1435;49.472;10.940;2022-10-16T18:08:07;18.90;99.90
2855;DHT22;1435;49.472;10.940;2022-10-16T18:13:09;18.90;99.90
2855;DHT22;1435;49.472;10.940;2022-10-16T18:18:12;18.80;99.90
2855;DHT22;1435;49.472;10.940;2022-10-16T18:23:14;18.80;99.90
2855;DHT22;1435;49.472;10.940;2022-10-16T18:28:16;18.70;99.90
2855;DHT22;1435;49.472;10.940;2022-10-16T18:33:19;18.70;99.90
2855;DHT22;1435;49.472;10.940;2022-10-16T18:38:21;18.60;99.90
2855;DHT22;1435;49.472;10.940;2022-10-16T18:43:23;18.60;99.90
2855;DHT22;1435;49.472;10.940;2022-10-16T18:48:26;18.60;99.90
2855;DHT22;1435;49.472;10.940;2022-10-16T18:53:29;18.50;99.90
2855;DHT22;1435;49.472;10.940;2022-10-16T18:58:32;18.50;99.90
2855;DHT22;1435;49.472;10.940;2022-10-16T19:03:36;18.50;99.90
2855;DHT22;1435;49.472;10.940;2022-10-16T19:08:38;18.40;99.90
2855;DHT22;1435;49.472;10.940;2022-10-16T19:13:40;18.50;99.90
2855;DHT22;1435;49.472;10.940;2022-10-16T19:18:43;18.40;99.90
2855;DHT22;1435;49.472;10.940;2022-10-16T19:23:45;18.40;99.90
2855;DHT22;1435;49.472;10.940;2022-10-16T19:28:47;18.40;99.90
2855;DHT22;1435;49.472;10.940;2022-10-16T19:33:52;18.30;99.90
2855;DHT22;1435;49.472;10.940;2022-10-16T19:38:56;18.30;99.90
2855;DHT22;1435;49.472;10.940;2022-10-16T19:44:00;18.30;99.90
2855;DHT22;1435;49.472;10.940;2022-10-16T19:49:05;18.20;99.90
2855;DHT22;1435;49.472;10.940;2022-10-16T19:54:11;18.10;99.90
2855;DHT22;1435;49.472;10.940;2022-10-16T19:59:13;18.10;99.90
2855;DHT22;1435;49.472;10.940;2022-10-16T20:04:19;18.00;99.90
2855;DHT22;1435;49.472;10.940;2022-10-16T20:09:21;17.90;99.90
2855;DHT22;1435;49.472;10.940;2022-10-16T20:14:23;17.80;99.90
2855;DHT22;1435;49.472;10.940;2022-10-16T20:19:26;17.70;99.90
2855;DHT22;1435;49.472;10.940;2022-10-16T20:24:28;17.60;99.90
2855;DHT22;1435;49.472;10.940;2022-10-16T20:29:29;17.50;99.90
2855;DHT22;1435;49.472;10.940;2022-10-16T20:34:33;17.50;99.90
2855;DHT22;1435;49.472;10.940;2022-10-16T20:39:34;17.40;99.90
2855;DHT22;1435;49.472;10.940;2022-10-16T20:44:36;17.30;99.90
2855;DHT22;1435;49.472;10.940;2022-10-16T20:49:39;17.20;99.90
2855;DHT22;1435;49.472;10.940;2022-10-16T20:54:43;17.10;99.90
2855;DHT22;1435;49.472;10.940;2022-10-16T20:59:47;17.00;99.90
2855;DHT22;1435;49.472;10.940;2022-10-16T21:04:55;16.90;99.90
2855;DHT22;1435;49.472;10.940;2022-10-16T21:09:57;16.90;99.90
2855;DHT22;1435;49.472;10.940;2022-10-16T21:14:59;16.80;99.90
2855;DHT22;1435;49.472;10.940;2022-10-16T21:20:03;16.80;99.90
2855;DHT22;1435;49.472;10.940;2022-10-16T21:25:05;16.70;99.90
2855;DHT22;1435;49.472;10.940;2022-10-16T21:30:09;16.60;99.90
2855;DHT22;1435;49.472;10.940;2022-10-16T21:35:12;16.60;99.90
2855;DHT22;1435;49.472;10.940;2022-10-16T21:40:14;16.60;99.90
2855;DHT22;1435;49.472;10.940;2022-10-16T21:45:16;16.50;99.90
2855;DHT22;1435;49.472;10.940;2022-10-16T21:50:19;16.50;99.90
2855;DHT22;1435;49.472;10.940;2022-10-16T21:55:20;16.40;99.90
2855;DHT22;1435;49.472;10.940;2022-10-16T22:00:22;16.30;99.90
2855;DHT22;1435;49.472;10.940;2022-10-16T22:05:25;16.30;99.90
2855;DHT22;1435;49.472;10.940;2022-10-16T22:10:27;16.30;99.90
2855;DHT22;1435;49.472;10.940;2022-10-16T22:15:29;16.10;99.90
2855;DHT22;1435;49.472;10.940;2022-10-16T22:20:32;16.10;99.90
2855;DHT22;1435;49.472;10.940;2022-10-16T22:25:33;16.10;99.90
2855;DHT22;1435;49.472;10.940;2022-10-16T22:30:36;16.10;99.90
2855;DHT22;1435;49.472;10.940;2022-10-16T22:35:39;16.10;99.90
2855;DHT22;1435;49.472;10.940;2022-10-16T22:40:41;16.10;99.90
2855;DHT22;1435;49.472;10.940;2022-10-16T22:45:43;16.10;99.90
2855;DHT22;1435;49.472;10.940;2022-10-16T22:50:47;16.10;99.90
2855;DHT22;1435;49.472;10.940;2022-10-16T22:55:48;16.00;99.90
2855;DHT22;1435;49.472;10.940;2022-10-16T23:00:50;15.90;99.90
2855;DHT22;1435;49.472;10.940;2022-10-16T23:05:53;15.90;99.90
2855;DHT22;1435;49.472;10.940;2022-10-16T23:10:55;15.80;99.90
2855;DHT22;1435;49.472;10.940;2022-10-16T23:16:02;15.80;99.90
2855;DHT22;1435;49.472;10.940;2022-10-16T23:21:06;15.70;99.90
2855;DHT22;1435;49.472;10.940;2022-10-16T23:26:09;15.70;99.90
2855;DHT22;1435;49.472;10.940;2022-10-16T23:31:12;15.60;99.90
2855;DHT22;1435;49.472;10.940;2022-10-16T23:36:17;15.60;99.90
2855;DHT22;1435;49.472;10.940;2022-10-16T23:41:19;15.60;99.90
2855;DHT22;1435;49.472;10.940;2022-10-16T23:46:21;15.50;99.90
2855;DHT22;1435;49.472;10.940;2022-10-16T23:51:24;15.40;99.90
2855;DHT22;1435;49.472;10.940;2022-10-16T23:56:26;15.30;99.90
